ΕΜΥ, Εθνική Μετεωρολογική Υπηρεσία - Δελτία Καιρού, Προγνώσεις

ΑΕΡΟΝΑΥΤΙΛΙΑ

GREEK AIRPORTS CODES

TAF LGZA 231700Z 2318/2403 04015KT 8000 FEW012 FEW018TCU BKN070 TEMPO 2318/2403 5000 RA TEMPO 2318/2403 06025G35KT=

EUROPEAN AIRPORTS CODES